Time;durP1;ratioP1;P1;durP2;ratioP2;P2;SDS_P1;SDS_P2;PMS_P1;PMS_P2;Temp;Humidity;BMP_temperature;BMP_pressure;BME280_temperature;BME280_humidity;BME280_pressure;Samples;Min_cycle;Max_cycle;Signal;HPM_P1;HPM_P2
2021/11/09 00:00:09;;;;;;;10.43;7.80;;;;;;;;;;5041765;28;20485;-78
2021/11/09 00:02:36;;;;;;;26.20;8.47;;;;;;;;;;5043442;28;20426;-78
2021/11/09 00:05:05;;;;;;;13.93;7.37;;;;;;;;;;5044110;28;20973;-79
2021/11/09 00:07:37;;;;;;;15.50;8.60;;;;;;;;;;5043140;28;20425;-79
2021/11/09 00:10:07;;;;;;;14.17;8.17;;;;;;;;;;5039335;28;20416;-79
2021/11/09 00:12:36;;;;;;;12.70;8.50;;;;;;;;;;5038829;28;20512;-79
2021/11/09 00:15:05;;;;;;;18.13;8.97;;;;;;;;;;5039927;28;20840;-80
2021/11/09 00:17:32;;;;;;;15.20;8.73;;;;;;;;;;5040634;28;20594;-79
2021/11/09 00:19:59;;;;;;;18.33;9.07;;;;;;;;;;5040963;28;20445;-79
2021/11/09 00:22:26;;;;;;;14.80;8.50;;;;;;;;;;5040809;28;20504;-78
2021/11/09 00:24:53;;;;;;;14.00;8.57;;;;;;;;;;5038439;28;20470;-77
2021/11/09 00:27:22;;;;;;;25.10;12.60;;;;;;;;;;5038159;28;20442;-79
2021/11/09 00:29:49;;;;;;;18.37;8.60;;;;;;;;;;5037960;28;20447;-79
2021/11/09 00:32:16;;;;;;;13.50;8.70;;;;;;;;;;5037826;28;20882;-79
2021/11/09 00:34:44;;;;;;;16.33;10.00;;;;;;;;;;5037156;28;20450;-79
2021/11/09 00:37:11;;;;;;;12.90;9.07;;;;;;;;;;5036813;28;20516;-79
2021/11/09 00:39:40;;;;;;;18.63;8.63;;;;;;;;;;5037125;28;20512;-79
2021/11/09 00:42:07;;;;;;;21.33;10.30;;;;;;;;;;5037771;28;20454;-80
2021/11/09 00:44:36;;;;;;;14.00;8.57;;;;;;;;;;5037601;28;20450;-79
2021/11/09 00:47:05;;;;;;;17.60;10.67;;;;;;;;;;5038031;28;20491;-79
2021/11/09 00:49:32;;;;;;;22.83;9.97;;;;;;;;;;5037732;28;20508;-79
2021/11/09 00:51:59;;;;;;;16.73;9.33;;;;;;;;;;5037362;28;20450;-79
2021/11/09 00:54:26;;;;;;;15.90;9.70;;;;;;;;;;5037549;28;20485;-79
2021/11/09 00:56:53;;;;;;;16.13;10.17;;;;;;;;;;5038171;28;20527;-80
2021/11/09 00:59:20;;;;;;;16.67;8.13;;;;;;;;;;5045503;28;20837;-79
2021/11/09 01:01:49;;;;;;;16.90;10.97;;;;;;;;;;5047213;28;20442;-79
2021/11/09 01:04:16;;;;;;;15.17;8.90;;;;;;;;;;5044456;28;20472;-79
2021/11/09 01:06:43;;;;;;;17.17;8.83;;;;;;;;;;5037369;28;20506;-78
2021/11/09 01:09:10;;;;;;;16.83;9.80;;;;;;;;;;5037216;28;20450;-78
2021/11/09 01:11:37;;;;;;;13.93;9.50;;;;;;;;;;5036891;28;20859;-78
2021/11/09 01:14:05;;;;;;;13.97;8.17;;;;;;;;;;5035980;28;20861;-79
2021/11/09 01:16:32;;;;;;;11.53;7.67;;;;;;;;;;5035571;28;20478;-78
2021/11/09 01:19:04;;;;;;;11.47;7.60;;;;;;;;;;5036364;28;20540;-78
2021/11/09 01:21:31;;;;;;;9.77;7.30;;;;;;;;;;5043356;28;20514;-78
2021/11/09 01:23:58;;;;;;;14.57;7.70;;;;;;;;;;5042008;28;20533;-79
2021/11/09 01:26:25;;;;;;;15.23;8.13;;;;;;;;;;5042088;28;20521;-79
2021/11/09 01:28:54;;;;;;;11.40;7.67;;;;;;;;;;5042309;28;20444;-79
2021/11/09 01:31:21;;;;;;;13.03;7.90;;;;;;;;;;5042290;28;20496;-79
2021/11/09 01:33:49;;;;;;;13.77;7.47;;;;;;;;;;5044415;28;20450;-78
2021/11/09 01:36:17;;;;;;;11.73;7.37;;;;;;;;;;5042519;28;20441;-78
2021/11/09 01:38:44;;;;;;;9.67;6.90;;;;;;;;;;5043987;28;20937;-77
2021/11/09 01:41:12;;;;;;;12.53;7.70;;;;;;;;;;5042712;28;20843;-78
2021/11/09 01:43:40;;;;;;;11.90;8.00;;;;;;;;;;5042411;28;20458;-79
2021/11/09 01:46:08;;;;;;;17.20;8.23;;;;;;;;;;5039165;28;20467;-81
2021/11/09 01:48:35;;;;;;;14.33;8.00;;;;;;;;;;5048580;28;20473;-78
2021/11/09 01:51:03;;;;;;;13.70;7.23;;;;;;;;;;5047678;28;20484;-77
2021/11/09 01:53:32;;;;;;;11.70;6.80;;;;;;;;;;5047042;28;20504;-78
2021/11/09 01:56:01;;;;;;;11.50;7.70;;;;;;;;;;5045621;28;20985;-79
2021/11/09 01:58:28;;;;;;;12.07;6.00;;;;;;;;;;5039829;28;20474;-79
2021/11/09 02:00:56;;;;;;;11.70;6.80;;;;;;;;;;5040160;28;20429;-78
2021/11/09 02:03:24;;;;;;;9.80;7.13;;;;;;;;;;5044107;28;20458;-77
2021/11/09 02:05:51;;;;;;;7.77;6.30;;;;;;;;;;5043164;28;20561;-78
2021/11/09 02:08:19;;;;;;;10.70;7.40;;;;;;;;;;5043523;28;20473;-77
2021/11/09 02:10:48;;;;;;;9.17;6.93;;;;;;;;;;5040562;28;20450;-78
2021/11/09 02:13:15;;;;;;;15.73;7.53;;;;;;;;;;5038359;28;20425;-79
2021/11/09 02:15:43;;;;;;;10.70;7.27;;;;;;;;;;5036570;28;20485;-81
2021/11/09 02:18:12;;;;;;;13.20;6.80;;;;;;;;;;5037694;28;20492;-79
2021/11/09 02:20:40;;;;;;;7.90;6.27;;;;;;;;;;5036969;28;20429;-78
2021/11/09 02:23:08;;;;;;;9.40;5.23;;;;;;;;;;5036644;28;20420;-79
2021/11/09 02:25:36;;;;;;;8.37;5.80;;;;;;;;;;5036793;28;20504;-80
2021/11/09 02:28:04;;;;;;;8.40;5.20;;;;;;;;;;5035515;28;20464;-79
2021/11/09 02:30:32;;;;;;;10.90;6.60;;;;;;;;;;5035710;28;20450;-79
2021/11/09 02:32:59;;;;;;;7.20;5.40;;;;;;;;;;5036179;28;20874;-79
2021/11/09 02:35:26;;;;;;;10.20;6.60;;;;;;;;;;5036283;28;20506;-79
2021/11/09 02:37:54;;;;;;;8.83;6.60;;;;;;;;;;5035745;28;20478;-79
2021/11/09 02:40:23;;;;;;;10.40;6.30;;;;;;;;;;5036396;28;20474;-79
2021/11/09 02:42:51;;;;;;;13.53;8.43;;;;;;;;;;5037220;28;20475;-80
2021/11/09 02:45:21;;;;;;;11.87;7.17;;;;;;;;;;5037134;28;20885;-79
2021/11/09 02:47:52;;;;;;;7.87;5.50;;;;;;;;;;5035908;28;20454;-79
2021/11/09 02:50:20;;;;;;;9.93;7.50;;;;;;;;;;5037660;28;20981;-80
2021/11/09 02:52:53;;;;;;;10.47;7.20;;;;;;;;;;5036669;28;20512;-79
2021/11/09 02:55:26;;;;;;;8.73;6.63;;;;;;;;;;5035258;28;20953;-79
2021/11/09 02:57:59;;;;;;;9.67;8.03;;;;;;;;;;5036196;28;20442;-80
2021/11/09 03:00:28;;;;;;;15.10;7.93;;;;;;;;;;5035776;28;20913;-79
2021/11/09 03:02:59;;;;;;;17.40;10.03;;;;;;;;;;5036286;28;21042;-79
2021/11/09 03:05:29;;;;;;;12.17;6.40;;;;;;;;;;5036178;28;20472;-80
2021/11/09 03:08:03;;;;;;;14.40;9.10;;;;;;;;;;5036504;28;20965;-79
2021/11/09 03:10:33;;;;;;;14.83;8.83;;;;;;;;;;5040864;28;20431;-78
2021/11/09 03:13:02;;;;;;;15.60;9.80;;;;;;;;;;5044221;28;20496;-77
2021/11/09 03:15:31;;;;;;;11.60;8.40;;;;;;;;;;5044411;28;20475;-79
2021/11/09 03:18:01;;;;;;;16.80;7.30;;;;;;;;;;5046024;28;20446;-78
2021/11/09 03:20:33;;;;;;;16.63;8.17;;;;;;;;;;5044090;28;20430;-77
2021/11/09 03:40:00;;;;;;;9.70;7.60;;;;;;;;;;5044686;28;20430;-79
2021/11/09 03:40:05;;;;;;;13.30;9.03;;;;;;;;;;5043316;28;20525;-78
2021/11/09 03:45:28;;;;;;;17.03;9.30;;;;;;;;;;5032952;28;20425;-79
2021/11/09 03:48:02;;;;;;;17.17;9.53;;;;;;;;;;5045756;28;20533;-78
2021/11/09 03:50:29;;;;;;;22.40;9.47;;;;;;;;;;5045301;28;20397;-79
2021/11/09 03:52:59;;;;;;;18.17;9.20;;;;;;;;;;5046482;28;20442;-79
2021/11/09 03:55:36;;;;;;;16.00;9.30;;;;;;;;;;5046492;28;20460;-77
2021/11/09 03:58:09;;;;;;;20.27;9.63;;;;;;;;;;5046515;28;20413;-79
2021/11/09 04:00:44;;;;;;;14.93;8.93;;;;;;;;;;5045783;28;20905;-80
2021/11/09 04:03:19;;;;;;;16.57;9.40;;;;;;;;;;5040195;28;20405;-77
2021/11/09 04:05:49;;;;;;;18.43;8.90;;;;;;;;;;5040135;28;20509;-78
2021/11/09 04:08:28;;;;;;;17.20;9.40;;;;;;;;;;5042383;28;20841;-79
2021/11/09 04:11:01;;;;;;;14.97;9.40;;;;;;;;;;5039459;28;20479;-79
2021/11/09 04:13:33;;;;;;;13.40;8.90;;;;;;;;;;5040251;28;20438;-78
2021/11/09 04:16:23;;;;;;;16.13;10.00;;;;;;;;;;5045430;28;20420;-78
2021/11/09 04:18:57;;;;;;;16.23;9.73;;;;;;;;;;5047471;28;20203;-79
2021/11/09 04:21:41;;;;;;;16.80;10.60;;;;;;;;;;5043134;28;20435;-79
2021/11/09 04:27:10;;;;;;;18.17;8.87;;;;;;;;;;5037365;28;20466;-78
2021/11/09 04:29:54;;;;;;;20.10;10.20;;;;;;;;;;5037723;28;20431;-77
2021/11/09 04:32:42;;;;;;;16.30;11.53;;;;;;;;;;5038099;28;20434;-79
2021/11/09 04:35:51;;;;;;;17.17;9.70;;;;;;;;;;5039188;28;20541;-78
2021/11/09 05:09:16;;;;;;;20.00;11.83;;;;;;;;;;5079633;28;20867;-79
2021/11/09 05:11:43;;;;;;;24.90;11.43;;;;;;;;;;5079528;28;20477;-81
2021/11/09 05:14:11;;;;;;;20.00;10.50;;;;;;;;;;5078306;28;20415;-80
2021/11/09 05:16:39;;;;;;;17.90;10.23;;;;;;;;;;5077693;28;20440;-80
2021/11/09 05:19:06;;;;;;;18.00;12.13;;;;;;;;;;5074147;28;20424;-79
2021/11/09 05:21:34;;;;;;;19.80;12.90;;;;;;;;;;5074508;28;20444;-80
2021/11/09 05:24:01;;;;;;;22.90;11.50;;;;;;;;;;5074587;28;20460;-80
2021/11/09 05:26:30;;;;;;;22.23;12.57;;;;;;;;;;5074009;28;20443;-80
2021/11/09 05:28:57;;;;;;;19.33;10.77;;;;;;;;;;5074988;28;20498;-80
2021/11/09 05:31:24;;;;;;;22.50;10.23;;;;;;;;;;5074368;28;20221;-79
2021/11/09 05:33:54;;;;;;;22.13;12.30;;;;;;;;;;5073526;28;20420;-79
2021/11/09 05:36:22;;;;;;;21.40;10.97;;;;;;;;;;5073391;28;20457;-79
2021/11/09 05:38:52;;;;;;;21.27;12.40;;;;;;;;;;5072962;28;20448;-79
2021/11/09 05:41:21;;;;;;;19.93;10.73;;;;;;;;;;5072984;28;20482;-79
2021/11/09 05:43:49;;;;;;;19.10;13.37;;;;;;;;;;5073488;28;20480;-79
2021/11/09 05:46:16;;;;;;;19.00;11.50;;;;;;;;;;5073036;28;20465;-78
2021/11/09 05:48:43;;;;;;;20.93;9.50;;;;;;;;;;5073009;28;20848;-79
2021/11/09 05:51:11;;;;;;;15.47;10.77;;;;;;;;;;5073746;28;20415;-81
2021/11/09 05:53:38;;;;;;;23.13;10.23;;;;;;;;;;5072488;28;20490;-79
2021/11/09 05:56:06;;;;;;;18.73;9.70;;;;;;;;;;5072898;28;20464;-79
2021/11/09 05:58:33;;;;;;;22.93;10.87;;;;;;;;;;5072671;28;20514;-80
2021/11/09 06:01:01;;;;;;;16.70;10.70;;;;;;;;;;5072232;28;20530;-80
2021/11/09 06:03:28;;;;;;;25.70;11.23;;;;;;;;;;5060898;28;20478;-80
2021/11/09 06:05:55;;;;;;;23.10;9.87;;;;;;;;;;5058617;28;20534;-80
2021/11/09 06:08:23;;;;;;;19.23;9.87;;;;;;;;;;5058947;28;20449;-79
2021/11/09 06:10:50;;;;;;;23.83;12.10;;;;;;;;;;5059162;28;20507;-79
2021/11/09 06:13:17;;;;;;;26.50;12.23;;;;;;;;;;5059797;28;20461;-79
2021/11/09 06:15:44;;;;;;;31.03;12.30;;;;;;;;;;5058794;28;20447;-79
2021/11/09 06:18:12;;;;;;;18.60;10.57;;;;;;;;;;5062161;28;20498;-80
2021/11/09 06:20:39;;;;;;;20.10;10.90;;;;;;;;;;5077733;28;20442;-79
2021/11/09 06:23:06;;;;;;;16.83;10.03;;;;;;;;;;5076253;28;20536;-78
2021/11/09 06:25:34;;;;;;;25.30;12.07;;;;;;;;;;5076257;28;20457;-78
2021/11/09 06:28:04;;;;;;;24.07;10.47;;;;;;;;;;5076078;28;20448;-78
2021/11/09 06:30:31;;;;;;;22.00;11.50;;;;;;;;;;5075434;28;20441;-78
2021/11/09 06:32:59;;;;;;;15.90;11.53;;;;;;;;;;5067799;28;20499;-79
2021/11/09 06:35:28;;;;;;;19.33;11.43;;;;;;;;;;5066447;28;21006;-78
2021/11/09 06:37:55;;;;;;;17.03;10.20;;;;;;;;;;5073071;28;20449;-78
2021/11/09 06:40:22;;;;;;;27.33;13.67;;;;;;;;;;5068769;28;20787;-80
2021/11/09 06:42:51;;;;;;;20.73;12.07;;;;;;;;;;5063871;28;20505;-78
2021/11/09 06:45:18;;;;;;;20.97;11.03;;;;;;;;;;5064814;28;20481;-79
2021/11/09 06:47:45;;;;;;;15.23;10.33;;;;;;;;;;5062152;28;20814;-79
2021/11/09 06:50:12;;;;;;;19.03;11.53;;;;;;;;;;5064979;28;20454;-80
2021/11/09 06:52:41;;;;;;;16.37;10.20;;;;;;;;;;5065463;28;20438;-80
2021/11/09 06:55:08;;;;;;;25.10;10.80;;;;;;;;;;5068940;28;21044;-80
2021/11/09 06:57:35;;;;;;;20.23;11.73;;;;;;;;;;5070328;28;20416;-80
2021/11/09 07:00:02;;;;;;;17.27;9.50;;;;;;;;;;5067673;28;20449;-80
2021/11/09 07:02:31;;;;;;;15.50;10.53;;;;;;;;;;5067386;28;20488;-79
2021/11/09 07:04:58;;;;;;;19.80;11.10;;;;;;;;;;5066801;28;20481;-79
2021/11/09 07:07:24;;;;;;;21.77;10.40;;;;;;;;;;5066143;28;20470;-80
2021/11/09 07:09:53;;;;;;;20.20;11.13;;;;;;;;;;5065803;28;20489;-80
2021/11/09 07:12:20;;;;;;;14.80;10.53;;;;;;;;;;5067808;28;20455;-80
2021/11/09 07:14:47;;;;;;;27.93;11.77;;;;;;;;;;5065057;28;20501;-79
2021/11/09 07:17:14;;;;;;;13.50;9.40;;;;;;;;;;5065001;28;20453;-80
2021/11/09 07:19:47;;;;;;;19.90;10.90;;;;;;;;;;5064504;28;20453;-79
2021/11/09 07:22:15;;;;;;;17.47;10.77;;;;;;;;;;5064748;28;20463;-80
2021/11/09 07:24:42;;;;;;;19.37;11.10;;;;;;;;;;5065060;28;20909;-81
2021/11/09 07:27:10;;;;;;;14.23;10.00;;;;;;;;;;5071102;28;20445;-79
2021/11/09 07:29:39;;;;;;;17.90;9.80;;;;;;;;;;5070789;28;20424;-78
2021/11/09 07:32:07;;;;;;;11.50;9.17;;;;;;;;;;5068073;28;20438;-79
2021/11/09 07:34:34;;;;;;;27.20;11.77;;;;;;;;;;5064310;28;20525;-79
2021/11/09 07:37:01;;;;;;;16.30;10.93;;;;;;;;;;5061938;28;20456;-79
2021/11/09 07:39:28;;;;;;;18.50;9.80;;;;;;;;;;5061732;28;20495;-80
2021/11/09 07:41:55;;;;;;;14.10;10.03;;;;;;;;;;5059587;28;20460;-80
2021/11/09 07:44:23;;;;;;;18.30;10.27;;;;;;;;;;5060633;28;20503;-78
2021/11/09 07:46:51;;;;;;;14.40;10.17;;;;;;;;;;5060492;28;20861;-83
2021/11/09 07:49:18;;;;;;;28.77;12.40;;;;;;;;;;5059151;28;20451;-80
2021/11/09 07:51:45;;;;;;;20.50;10.40;;;;;;;;;;5058571;28;20437;-80
2021/11/09 07:54:12;;;;;;;19.10;10.00;;;;;;;;;;5059617;28;20441;-79
2021/11/09 07:56:40;;;;;;;19.40;8.67;;;;;;;;;;5058096;28;20450;-80
2021/11/09 07:59:23;;;;;;;15.93;11.37;;;;;;;;;;5058530;28;20483;-80
2021/11/09 08:02:01;;;;;;;19.33;10.83;;;;;;;;;;5058419;28;20460;-79
2021/11/09 08:04:31;;;;;;;17.40;10.60;;;;;;;;;;5057685;28;20453;-79
2021/11/09 08:07:01;;;;;;;14.00;9.63;;;;;;;;;;5058490;28;20392;-80
2021/11/09 08:09:29;;;;;;;18.87;11.60;;;;;;;;;;5058261;28;20445;-80
2021/11/09 08:11:57;;;;;;;19.13;12.17;;;;;;;;;;5058521;28;20540;-79
2021/11/09 08:14:25;;;;;;;27.43;14.93;;;;;;;;;;5058601;28;20416;-80
2021/11/09 08:16:53;;;;;;;34.83;16.80;;;;;;;;;;5058885;28;20445;-78
2021/11/09 08:19:21;;;;;;;29.13;14.23;;;;;;;;;;5058235;28;20471;-79
2021/11/09 08:21:48;;;;;;;21.07;13.30;;;;;;;;;;5058202;28;20456;-79
2021/11/09 08:24:17;;;;;;;20.03;13.13;;;;;;;;;;5057830;28;20485;-79
2021/11/09 08:26:44;;;;;;;17.03;14.30;;;;;;;;;;5058465;28;20469;-79
2021/11/09 08:29:12;;;;;;;15.03;12.03;;;;;;;;;;5074601;28;20442;-79
2021/11/09 08:31:42;;;;;;;14.67;11.40;;;;;;;;;;5071609;28;20416;-80
2021/11/09 08:34:13;;;;;;;23.57;12.33;;;;;;;;;;5063958;28;20442;-81
2021/11/09 08:36:44;;;;;;;19.00;10.57;;;;;;;;;;5058647;28;20488;-80
2021/11/09 08:39:13;;;;;;;23.23;10.67;;;;;;;;;;5058604;28;20840;-79
2021/11/09 08:41:42;;;;;;;16.60;10.77;;;;;;;;;;5058441;28;20485;-80
2021/11/09 08:44:11;;;;;;;17.50;9.80;;;;;;;;;;5057861;28;20484;-80
2021/11/09 08:46:41;;;;;;;19.10;11.00;;;;;;;;;;5057546;28;20886;-80
2021/11/09 08:49:12;;;;;;;20.30;10.87;;;;;;;;;;5057616;28;20434;-81
2021/11/09 08:51:40;;;;;;;20.50;10.00;;;;;;;;;;5057809;28;20449;-80
2021/11/09 08:54:13;;;;;;;15.20;10.33;;;;;;;;;;5057918;28;20453;-80
2021/11/09 09:04:59;;;;;;;20.63;10.50;;;;;;;;;;5057624;28;20457;-80
2021/11/09 09:07:26;;;;;;;14.80;10.33;;;;;;;;;;5062802;28;20433;-78
2021/11/09 09:09:54;;;;;;;18.97;10.90;;;;;;;;;;5076586;28;20452;-79
2021/11/09 09:12:21;;;;;;;17.53;10.23;;;;;;;;;;5076550;28;20436;-77
2021/11/09 09:14:48;;;;;;;20.80;11.50;;;;;;;;;;5077028;28;20484;-79
2021/11/09 09:17:15;;;;;;;19.50;10.30;;;;;;;;;;5076778;28;20458;-79
2021/11/09 09:19:47;;;;;;;19.70;11.63;;;;;;;;;;5077543;28;20449;-79
2021/11/09 09:22:17;;;;;;;15.00;10.87;;;;;;;;;;5073355;28;20462;-80
2021/11/09 09:24:57;;;;;;;13.97;10.43;;;;;;;;;;5059664;28;20444;-80
2021/11/09 09:27:30;;;;;;;19.43;11.43;;;;;;;;;;5059284;28;20437;-80
2021/11/09 09:30:26;;;;;;;29.97;10.67;;;;;;;;;;5058953;28;20452;-80
2021/11/09 09:33:16;;;;;;;26.93;13.70;;;;;;;;;;5058283;28;20484;-79
2021/11/09 09:52:30;;;;;;;;;;;10.00;99.90;;;;;;5078207;28;19920;-78
2021/11/09 09:55:21;;;;;;;;;;;9.90;99.90;;;;;;5079146;28;19951;-78
2021/11/09 09:57:50;;;;;;;;;;;9.90;99.90;;;;;;5072418;28;19924;-79
2021/11/09 10:00:17;;;;;;;;;;;9.90;99.90;;;;;;5063620;28;19924;-79
2021/11/09 10:02:47;;;;;;;;;;;9.90;99.90;;;;;;5062010;28;19925;-79
2021/11/09 10:05:15;;;;;;;;;;;10.00;99.90;;;;;;5062155;28;19951;-79
2021/11/09 10:07:42;;;;;;;;;;;10.10;99.90;;;;;;5075154;28;19959;-80
2021/11/09 10:10:15;;;;;;;;;;;10.00;99.90;;;;;;5078378;28;19925;-78
2021/11/09 10:12:42;;;;;;;;;;;10.00;99.90;;;;;;5077565;28;19980;-79
2021/11/09 10:15:10;;;;;;;;;;;10.10;99.90;;;;;;5076654;28;19925;-78
2021/11/09 10:17:39;;;;;;;;;;;10.10;99.90;;;;;;5069306;28;19924;-78
2021/11/09 10:20:10;;;;;;;;;;;10.20;99.90;;;;;;5066730;28;19947;-79
2021/11/09 10:22:37;;;;;;;;;;;10.20;99.90;;;;;;5065549;28;20344;-79
2021/11/09 10:25:05;;;;;;;;;;;10.20;99.90;;;;;;5064487;28;19929;-79
2021/11/09 10:27:36;;;;;;;;;;;10.20;99.90;;;;;;5063155;28;19974;-80
2021/11/09 10:30:07;;;;;;;;;;;10.20;99.90;;;;;;5062344;28;19929;-79
2021/11/09 10:32:33;;;;;;;;;;;10.30;99.90;;;;;;5061616;28;19994;-79
2021/11/09 10:35:02;;;;;;;;;;;10.40;99.90;;;;;;5064160;28;19925;-78
2021/11/09 10:37:29;;;;;;;;;;;10.40;99.90;;;;;;5078746;28;19925;-77
2021/11/09 10:39:58;;;;;;;;;;;10.40;99.90;;;;;;5079461;28;19925;-77
2021/11/09 10:42:26;;;;;;;;;;;10.40;99.90;;;;;;5062247;28;19948;-79
2021/11/09 10:44:56;;;;;;;;;;;10.60;99.90;;;;;;5060981;28;19925;-79
2021/11/09 10:47:24;;;;;;;;;;;10.60;99.90;;;;;;5062039;28;19979;-78
2021/11/09 10:49:52;;;;;;;;;;;10.70;99.90;;;;;;5071185;28;19931;-78
2021/11/09 10:52:24;;;;;;;;;;;10.70;99.90;;;;;;5073224;28;20361;-79
2021/11/09 10:54:52;;;;;;;;;;;10.90;99.90;;;;;;5074736;28;19960;-78
2021/11/09 10:57:24;;;;;;;;;;;10.90;99.90;;;;;;5073748;28;19925;-78
2021/11/09 11:00:05;;;;;;;;;;;11.00;99.90;;;;;;5073253;28;20048;-77
2021/11/09 11:05:18;;;;;;;;;;;11.10;99.90;;;;;;5087130;22;19931;-81
2021/11/09 11:07:51;;;;;;;;;;;11.10;99.90;;;;;;5080695;28;19931;-81
2021/11/09 11:10:25;;;;;;;;;;;11.20;99.90;;;;;;5081010;28;20298;-82
2021/11/09 11:12:51;;;;;;;;;;;11.40;99.90;;;;;;5082659;28;19924;-82
2021/11/09 11:15:18;;;;;;;;;;;11.40;99.90;;;;;;5083883;28;20356;-81
2021/11/09 11:17:47;;;;;;;;;;;11.40;99.90;;;;;;5084386;28;19924;-81
2021/11/09 11:20:14;;;;;;;;;;;11.30;99.90;;;;;;5079965;28;19924;-81
2021/11/09 11:22:41;;;;;;;;;;;11.30;99.90;;;;;;5088516;28;19987;-80
2021/11/09 11:25:08;;;;;;;;;;;11.20;99.90;;;;;;5092501;28;19925;-80
2021/11/09 11:27:34;;;;;;;;;;;11.20;99.90;;;;;;5084648;28;19947;-80
2021/11/09 11:30:01;;;;;;;;;;;11.20;99.90;;;;;;5086563;28;19925;-80
2021/11/09 11:32:29;;;;;;;;;;;11.20;99.90;;;;;;5093265;28;20007;-80
2021/11/09 11:34:57;;;;;;;;;;;11.30;99.90;;;;;;5084245;28;19924;-80
2021/11/09 11:37:23;;;;;;;;;;;11.20;99.90;;;;;;5079784;28;19925;-81
2021/11/09 11:39:53;;;;;;;;;;;11.40;99.90;;;;;;5080335;28;20409;-81
2021/11/09 11:42:19;;;;;;;;;;;11.40;99.90;;;;;;5079173;28;20367;-82
2021/11/09 11:44:55;;;;;;;;;;;11.20;99.90;;;;;;5080104;28;19925;-81
2021/11/09 11:47:22;;;;;;;;;;;11.30;99.90;;;;;;5079477;28;20034;-81
2021/11/09 11:49:51;;;;;;;;;;;11.20;99.90;;;;;;5087920;28;20022;-82
2021/11/09 11:52:21;;;;;;;;;;;11.20;99.90;;;;;;5087880;28;20299;-81
2021/11/09 11:54:50;;;;;;;;;;;11.40;99.90;;;;;;5082501;28;19924;-80
2021/11/09 11:57:41;;;;;;;;;;;11.40;99.90;;;;;;5084243;28;20030;-81
2021/11/09 12:00:24;;;;;;;;;;;11.50;99.90;;;;;;5084112;28;20363;-81
2021/11/09 12:02:51;;;;;;;;;;;11.40;99.90;;;;;;5086417;28;19924;-81
2021/11/09 12:05:33;;;;;;;;;;;11.30;99.90;;;;;;5082708;28;19928;-81
2021/11/09 12:08:02;;;;;;;;;;;11.30;99.90;;;;;;5084378;28;19955;-81
2021/11/09 12:10:37;;;;;;;;;;;11.20;99.90;;;;;;5081204;28;19992;-80
2021/11/09 12:13:05;;;;;;;;;;;11.30;99.90;;;;;;5081998;28;19924;-82
2021/11/09 12:15:48;;;;;;;;;;;11.20;99.90;;;;;;5081066;28;19931;-81
2021/11/09 12:18:30;;;;;;;;;;;11.20;99.90;;;;;;5080456;28;19925;-82
2021/11/09 12:20:57;;;;;;;;;;;11.30;99.90;;;;;;5078090;28;19968;-81
2021/11/09 12:23:24;;;;;;;;;;;11.30;99.90;;;;;;5079350;28;19925;-81
2021/11/09 12:25:52;;;;;;;;;;;11.20;99.90;;;;;;5082211;28;20011;-81
2021/11/09 12:28:20;;;;;;;;;;;11.20;99.90;;;;;;5088354;28;19974;-81
2021/11/09 12:30:48;;;;;;;;;;;11.20;99.90;;;;;;5080250;28;19931;-81
2021/11/09 12:33:17;;;;;;;;;;;11.30;99.90;;;;;;5080551;28;19925;-82
2021/11/09 12:35:44;;;;;;;;;;;11.40;99.90;;;;;;5079464;28;19939;-81
2021/11/09 12:38:14;;;;;;;;;;;11.40;99.90;;;;;;5079683;28;19929;-81
2021/11/09 12:40:47;;;;;;;;;;;11.50;99.90;;;;;;5083536;28;19928;-81
2021/11/09 12:43:15;;;;;;;;;;;11.40;99.90;;;;;;5087126;28;19937;-81
2021/11/09 12:45:43;;;;;;;;;;;11.40;99.90;;;;;;5086736;28;19987;-82
2021/11/09 12:48:12;;;;;;;;;;;11.40;99.90;;;;;;5086363;28;19925;-81
2021/11/09 12:50:39;;;;;;;;;;;11.40;99.90;;;;;;5081294;28;19925;-81
2021/11/09 12:53:09;;;;;;;;;;;11.40;99.90;;;;;;5080028;28;20379;-81
2021/11/09 12:55:36;;;;;;;;;;;11.30;99.90;;;;;;5087477;28;19924;-81
2021/11/09 12:58:18;;;;;;;;;;;11.30;99.90;;;;;;5084810;28;19924;-80
2021/11/09 13:00:49;;;;;;;;;;;11.40;99.90;;;;;;5078908;28;20235;-81
2021/11/09 13:03:31;;;;;;;;;;;11.50;99.90;;;;;;5081200;28;19992;-81
2021/11/09 13:06:05;;;;;;;;;;;11.50;99.90;;;;;;5082201;28;19924;-81
2021/11/09 13:08:46;;;;;;;;;;;11.50;99.90;;;;;;5078577;28;20319;-81
2021/11/09 13:11:30;;;;;;;;;;;11.60;99.90;;;;;;5079977;28;19924;-81
2021/11/09 13:14:03;;;;;;;;;;;11.60;99.90;;;;;;5082155;28;19982;-81
2021/11/09 13:16:29;;;;;;;;;;;11.70;99.90;;;;;;5084142;28;19924;-80
2021/11/09 13:19:02;;;;;;;;;;;11.60;99.90;;;;;;5084337;28;19928;-80
2021/11/09 13:21:28;;;;;;;;;;;11.60;99.90;;;;;;5083471;28;19924;-80
2021/11/09 13:23:54;;;;;;;;;;;11.30;99.90;;;;;;5085978;28;20010;-82
2021/11/09 13:26:21;;;;;;;;;;;11.30;99.90;;;;;;5092394;28;19928;-82
2021/11/09 13:28:47;;;;;;;;;;;11.20;99.90;;;;;;5098669;28;19931;-81
2021/11/09 13:31:16;;;;;;;;;;;11.20;99.90;;;;;;5099053;28;19912;-80
2021/11/09 13:33:44;;;;;;;;;;;11.20;99.90;;;;;;5100510;28;19912;-80
2021/11/09 13:36:11;;;;;;;;;;;11.30;99.90;;;;;;5099537;28;20015;-80
2021/11/09 13:38:39;;;;;;;;;;;11.40;99.90;;;;;;5099149;28;19924;-80
2021/11/09 13:41:06;;;;;;;;;;;11.20;99.90;;;;;;5089161;28;19950;-81
2021/11/09 13:43:36;;;;;;;;;;;11.00;99.90;;;;;;5089875;28;19924;-81
2021/11/09 13:46:04;;;;;;;;;;;11.00;99.90;;;;;;5089274;28;19924;-81
2021/11/09 13:48:33;;;;;;;;;;;10.80;99.90;;;;;;5087387;28;19977;-81
2021/11/09 13:51:01;;;;;;;;;;;10.90;99.90;;;;;;5087788;28;19946;-81
2021/11/09 13:53:29;;;;;;;;;;;10.80;99.90;;;;;;5092554;28;20333;-81
2021/11/09 13:55:57;;;;;;;;;;;10.80;99.90;;;;;;5094430;28;19928;-82
2021/11/09 13:58:23;;;;;;;;;;;10.80;99.90;;;;;;5089314;28;19931;-81
2021/11/09 14:00:53;;;;;;;;;;;10.90;99.90;;;;;;5086362;28;19924;-82
2021/11/09 14:03:27;;;;;;;;;;;11.00;99.90;;;;;;5086486;28;19925;-81
2021/11/09 14:06:34;;;;;;;;;;;11.20;99.90;;;;;;5085903;28;19924;-81
2021/11/09 14:09:18;;;;;;;;;;;11.20;99.90;;;;;;5085994;28;19928;-81
2021/11/09 14:12:12;;;;;;;;;;;11.20;99.90;;;;;;5084949;28;19955;-81
2021/11/09 14:14:47;;;;;;;;;;;11.30;99.90;;;;;;5084496;28;19924;-81
2021/11/09 14:17:13;;;;;;;;;;;11.40;99.90;;;;;;5090139;28;19931;-81
2021/11/09 14:19:41;;;;;;;;;;;11.40;99.90;;;;;;5089031;28;20054;-81
2021/11/09 14:22:11;;;;;;;;;;;11.30;99.90;;;;;;5090999;28;19933;-80
2021/11/09 14:24:37;;;;;;;;;;;11.20;99.90;;;;;;5100749;28;19943;-80
2021/11/09 14:27:05;;;;;;;;;;;11.10;99.90;;;;;;5100940;28;19912;-79
2021/11/09 14:29:36;;;;;;;;;;;10.90;99.90;;;;;;5100784;28;19935;-80
2021/11/09 14:32:05;;;;;;;;;;;10.90;99.90;;;;;;5094209;28;19929;-80
2021/11/09 14:34:32;;;;;;;;;;;10.90;99.90;;;;;;5094756;28;19992;-81
2021/11/09 14:37:13;;;;;;;;;;;10.80;99.90;;;;;;5093790;28;19987;-81
2021/11/09 14:39:43;;;;;;;;;;;10.80;99.90;;;;;;5090827;28;19924;-81
2021/11/09 14:42:14;;;;;;;;;;;10.80;99.90;;;;;;5096354;28;19925;-81
2021/11/09 14:45:02;;;;;;;;;;;10.80;99.90;;;;;;5093221;28;20062;-79
2021/11/09 14:47:34;;;;;;;;;;;10.70;99.90;;;;;;5087157;28;19928;-80
2021/11/09 14:50:06;;;;;;;;;;;10.60;99.90;;;;;;5095849;28;19925;-79
2021/11/09 14:52:36;;;;;;;;;;;10.70;99.90;;;;;;5096197;28;19946;-80
2021/11/09 14:55:25;;;;;;;;;;;10.70;99.90;;;;;;5086870;28;19924;-82
2021/11/09 14:57:51;;;;;;;;;;;10.70;99.90;;;;;;5086334;28;19947;-81
2021/11/09 15:00:19;;;;;;;;;;;10.60;99.90;;;;;;5085211;28;19929;-82
2021/11/09 15:02:46;;;;;;;;;;;10.50;99.90;;;;;;5084593;28;19951;-81
2021/11/09 15:05:20;;;;;;;;;;;10.30;99.90;;;;;;5084710;28;19946;-81
2021/11/09 15:07:59;;;;;;;;;;;10.40;99.90;;;;;;5083440;28;19925;-82
2021/11/09 15:10:42;;;;;;;;;;;10.30;99.90;;;;;;5084318;28;19924;-82
2021/11/09 15:13:20;;;;;;;;;;;10.10;99.90;;;;;;5084021;28;19983;-82
2021/11/09 15:27:08;;;;;;;;;;;10.00;99.90;;;;;;5086404;28;19932;-82
2021/11/09 15:29:42;;;;;;;;;;;10.00;99.90;;;;;;5087577;28;19924;-82
2021/11/09 15:32:11;;;;;;;;;;;9.90;99.90;;;;;;5087879;28;19924;-82
2021/11/09 15:34:49;;;;;;;;;;;9.90;99.90;;;;;;5087273;28;19974;-83
2021/11/09 15:37:25;;;;;;;;;;;9.80;99.90;;;;;;5086546;28;20004;-81
2021/11/09 15:39:58;;;;;;;;;;;9.80;99.90;;;;;;5085447;28;19958;-82
2021/11/09 15:42:25;;;;;;;;;;;9.80;99.90;;;;;;5084124;28;19999;-82
2021/11/09 15:44:52;;;;;;;;;;;9.70;99.90;;;;;;5088024;28;19948;-81
2021/11/09 15:47:20;;;;;;;;;;;9.70;99.90;;;;;;5085967;28;19928;-81
2021/11/09 15:49:49;;;;;;;;;;;9.60;99.90;;;;;;5083579;28;19955;-82
2021/11/09 15:52:15;;;;;;;;;;;9.60;99.90;;;;;;5082468;28;20425;-81
2021/11/09 15:54:43;;;;;;;;;;;9.60;99.90;;;;;;5082435;28;19928;-81
2021/11/09 15:57:11;;;;;;;;;;;9.60;99.90;;;;;;5083082;28;20401;-81
2021/11/09 15:59:37;;;;;;;;;;;9.60;99.90;;;;;;5084884;28;19925;-81
2021/11/09 16:02:05;;;;;;;;;;;9.60;99.90;;;;;;5082105;28;19924;-81
2021/11/09 16:04:36;;;;;;;;;;;9.50;99.90;;;;;;5080675;28;19928;-81
2021/11/09 16:07:03;;;;;;;;;;;9.50;99.90;;;;;;5082845;28;19924;-81